Time;durP1;ratioP1;P1;durP2;ratioP2;P2;SDS_P1;SDS_P2;PMS_P1;PMS_P2;Temp;Humidity;BMP_temperature;BMP_pressure;BME280_temperature;BME280_humidity;BME280_pressure;Samples;Min_cycle;Max_cycle;Signal;HPM_P1;HPM_P2
2022/09/13 00:01:27;;;;;;;7.47;4.80;;;;;;;10.47;96.03;98234.34;4235023;27;20476;-72
2022/09/13 00:03:28;;;;;;;6.10;4.68;;;;;;;10.44;96.35;98234.31;4235779;27;20436;-72
2022/09/13 00:05:28;;;;;;;6.43;4.82;;;;;;;10.41;95.83;98231.13;4235267;27;20043;-72
2022/09/13 00:07:29;;;;;;;5.88;4.70;;;;;;;10.38;96.24;98242.97;4235353;27;20096;-72
2022/09/13 00:09:29;;;;;;;5.85;4.35;;;;;;;10.37;96.91;98246.91;4235010;28;20072;-72
2022/09/13 00:11:30;;;;;;;8.00;5.40;;;;;;;10.37;98.37;98252.44;4235339;27;20512;-72
2022/09/13 00:13:31;;;;;;;6.22;4.97;;;;;;;10.35;99.65;98254.81;4236089;27;20488;-72
2022/09/13 00:15:31;;;;;;;10.48;5.25;;;;;;;10.32;100.00;98241.72;4235173;27;20047;-72
2022/09/13 00:17:32;;;;;;;8.38;5.63;;;;;;;10.34;100.00;98255.16;4234786;27;20341;-72
2022/09/13 00:19:32;;;;;;;8.88;5.95;;;;;;;10.36;100.00;98247.28;4235619;27;20050;-72
2022/09/13 00:21:33;;;;;;;7.07;5.10;;;;;;;10.38;100.00;98251.25;4235461;27;20546;-72
2022/09/13 00:23:34;;;;;;;6.75;5.10;;;;;;;10.39;100.00;98233.47;4235688;27;20096;-72
2022/09/13 00:25:34;;;;;;;7.75;4.45;;;;;;;10.43;99.78;98241.03;4235654;27;20062;-73
2022/09/13 00:27:36;;;;;;;7.85;4.90;;;;;;;10.46;98.28;98238.28;4235478;27;20055;-72
2022/09/13 00:29:36;;;;;;;7.45;5.30;;;;;;;10.47;98.75;98228.81;4238028;27;20047;-72
2022/09/13 00:31:36;;;;;;;7.47;5.18;;;;;;;10.47;98.50;98226.03;4239613;27;20050;-72
2022/09/13 00:33:37;;;;;;;9.20;5.53;;;;;;;10.50;98.75;98218.94;4238838;27;20035;-72
2022/09/13 00:35:37;;;;;;;6.28;4.88;;;;;;;10.52;98.45;98216.59;4238530;27;20112;-72
2022/09/13 00:37:38;;;;;;;8.13;5.13;;;;;;;10.56;97.04;98214.66;4237931;27;20058;-72
2022/09/13 00:39:38;;;;;;;6.80;5.00;;;;;;;10.60;96.14;98216.28;4238126;27;20039;-72
2022/09/13 00:41:39;;;;;;;8.32;5.40;;;;;;;10.60;96.54;98199.69;4238945;27;20469;-72
2022/09/13 00:43:39;;;;;;;7.63;5.25;;;;;;;10.60;97.09;98194.13;4238167;27;20050;-72
2022/09/13 00:45:39;;;;;;;6.78;5.45;;;;;;;10.56;97.41;98206.34;4238343;27;20051;-72
2022/09/13 00:47:52;;;;;;;7.40;5.18;;;;;;;10.55;97.31;98204.75;4238868;27;20483;-72
2022/09/13 00:50:16;;;;;;;9.35;6.03;;;;;;;10.51;97.94;98210.28;4237698;27;20055;-72
2022/09/13 00:52:21;;;;;;;7.57;5.35;;;;;;;10.48;98.55;98199.97;4237580;27;20043;-72
2022/09/13 00:54:28;;;;;;;7.47;5.47;;;;;;;10.51;98.46;98190.91;4238547;27;20499;-72
2022/09/13 00:56:40;;;;;;;10.93;5.25;;;;;;;10.47;98.37;98187.31;4237980;27;20043;-72
2022/09/13 00:59:04;;;;;;;7.80;5.53;;;;;;;10.44;98.99;98188.09;4236865;27;20371;-72
2022/09/13 01:01:09;;;;;;;8.75;5.50;;;;;;;10.41;97.92;98184.09;4239116;27;20727;-72
2022/09/13 01:03:12;;;;;;;7.28;5.25;;;;;;;10.36;97.92;98180.94;4238689;27;20039;-72
2022/09/13 01:05:17;;;;;;;6.85;4.70;;;;;;;10.38;97.98;98178.56;4238276;27;20043;-72
2022/09/13 01:07:18;;;;;;;7.53;5.13;;;;;;;10.37;98.68;98180.53;4238364;27;20047;-72
2022/09/13 01:09:19;;;;;;;7.50;5.47;;;;;;;10.37;98.72;98193.56;4237639;27;20112;-72
2022/09/13 01:11:39;;;;;;;7.00;5.28;;;;;;;10.33;98.31;98201.81;4238355;27;20042;-72
2022/09/13 01:13:40;;;;;;;7.20;5.82;;;;;;;10.27;98.57;98186.78;4238339;27;20052;-72
2022/09/13 01:15:41;;;;;;;8.23;5.35;;;;;;;10.29;97.75;98186.41;4220380;28;20058;-72
2022/09/13 01:17:42;;;;;;;7.65;5.47;;;;;;;10.27;98.48;98172.16;4238123;27;20142;-72
2022/09/13 01:19:43;;;;;;;8.02;5.35;;;;;;;10.28;97.84;98160.72;4237200;27;20035;-72
2022/09/13 01:21:55;;;;;;;9.27;6.03;;;;;;;10.26;98.29;98167.78;4237766;27;20070;-72
2022/09/13 01:24:28;;;;;;;8.65;5.70;;;;;;;10.17;98.62;98157.03;4238785;27;20050;-72
2022/09/13 01:26:47;;;;;;;7.18;5.88;;;;;;;10.26;97.95;98145.66;4237811;27;20214;-72
2022/09/13 01:29:15;;;;;;;10.85;5.88;;;;;;;10.39;97.58;98127.59;4237343;27;20047;-72
2022/09/13 01:31:29;;;;;;;8.68;6.30;;;;;;;10.40;98.05;98129.19;4238072;27;20043;-72
2022/09/13 01:33:37;;;;;;;8.65;5.85;;;;;;;10.29;98.85;98131.88;4238673;27;20458;-72
2022/09/13 01:36:04;;;;;;;8.20;5.55;;;;;;;10.22;100.00;98137.38;4238276;27;20421;-72
2022/09/13 01:38:04;;;;;;;6.45;5.03;;;;;;;10.14;100.00;98144.78;4237273;27;20050;-72
2022/09/13 01:40:44;;;;;;;8.50;6.22;;;;;;;10.04;100.00;98137.19;4237260;27;20462;-72
2022/09/13 01:42:56;;;;;;;10.85;6.10;;;;;;;10.08;99.05;98148.28;4236792;27;20058;-72
2022/09/13 01:45:09;;;;;;;7.53;5.35;;;;;;;10.08;99.02;98139.97;4238239;27;20485;-72
2022/09/13 01:47:26;;;;;;;9.02;5.40;;;;;;;10.04;97.93;98142.72;4237732;27;20047;-72
2022/09/13 01:49:35;;;;;;;10.52;6.30;;;;;;;10.03;98.77;98143.13;4237251;27;20504;-72
2022/09/13 01:51:42;;;;;;;11.73;6.55;;;;;;;9.99;98.82;98145.03;4237610;27;20043;-72
2022/09/13 01:54:15;;;;;;;10.68;6.57;;;;;;;9.93;100.00;98144.63;4237311;27;20047;-72
2022/09/13 01:56:25;;;;;;;9.38;6.20;;;;;;;9.90;100.00;98133.53;4237350;27;20043;-72
2022/09/13 01:58:54;;;;;;;9.25;5.82;;;;;;;9.92;100.00;98126.44;4236756;27;20625;-72
2022/09/13 02:01:42;;;;;;;9.68;5.82;;;;;;;9.89;99.90;98129.97;4237676;27;20051;-72
2022/09/13 02:03:55;;;;;;;9.98;5.30;;;;;;;9.86;100.00;98116.91;4222796;27;20093;-72
2022/09/13 02:06:02;;;;;;;10.38;5.78;;;;;;;9.79;100.00;98116.84;4237642;27;20437;-72
2022/09/13 02:08:09;;;;;;;8.60;5.85;;;;;;;9.78;100.00;98106.97;4237400;27;20411;-72
2022/09/13 02:10:16;;;;;;;7.40;5.50;;;;;;;9.79;100.00;98111.34;4237573;27;20375;-72
2022/09/13 02:12:22;;;;;;;8.23;6.00;;;;;;;9.79;100.00;98105.81;4236945;27;20023;-72
2022/09/13 02:14:37;;;;;;;8.88;5.95;;;;;;;9.78;100.00;98109.75;4237966;27;20043;-72
2022/09/13 02:16:53;;;;;;;7.82;5.88;;;;;;;9.76;100.00;98110.13;4237489;27;20051;-72
2022/09/13 02:18:58;;;;;;;8.75;5.80;;;;;;;9.73;100.00;98113.63;4236013;27;20092;-72
2022/09/13 02:21:06;;;;;;;7.07;5.18;;;;;;;9.73;100.00;98108.13;4237231;27;20425;-72
2022/09/13 02:23:15;;;;;;;9.52;5.75;;;;;;;9.74;100.00;98097.84;4237795;27;20088;-72
2022/09/13 02:25:20;;;;;;;9.25;6.43;;;;;;;9.71;100.00;98106.91;4236855;27;20039;-72
2022/09/13 02:27:25;;;;;;;7.70;5.85;;;;;;;9.71;100.00;98098.63;4236410;27;20544;-72
2022/09/13 02:29:28;;;;;;;8.88;6.07;;;;;;;9.69;100.00;98098.22;4236260;27;20051;-72
2022/09/13 02:31:35;;;;;;;13.85;6.05;;;;;;;9.69;100.00;98089.94;4237178;27;20027;-72
2022/09/13 02:33:41;;;;;;;9.80;6.38;;;;;;;9.71;100.00;98087.59;4236754;27;20043;-72
2022/09/13 02:35:51;;;;;;;8.52;5.90;;;;;;;9.67;100.00;98093.06;4236945;27;20035;-72
2022/09/13 02:38:00;;;;;;;7.20;5.07;;;;;;;9.69;100.00;98087.97;4237537;27;20050;-72
2022/09/13 02:40:12;;;;;;;8.82;5.47;;;;;;;9.68;100.00;98077.28;4235797;27;20050;-72
2022/09/13 02:42:19;;;;;;;9.88;5.82;;;;;;;9.69;100.00;98085.19;4236674;27;20070;-72
2022/09/13 02:44:43;;;;;;;7.90;5.75;;;;;;;9.74;100.00;98084.03;4236799;27;20093;-72
2022/09/13 02:46:51;;;;;;;7.25;5.13;;;;;;;9.69;100.00;98089.94;4237585;27;20506;-72
2022/09/13 02:49:13;;;;;;;7.85;5.95;;;;;;;9.66;100.00;98087.91;4236693;27;20055;-73
2022/09/13 02:51:28;;;;;;;9.27;6.40;;;;;;;9.64;100.00;98091.06;4236037;27;20043;-72
2022/09/13 02:53:52;;;;;;;8.50;6.38;;;;;;;9.59;100.00;98085.88;4236907;27;20047;-72
2022/09/13 02:56:08;;;;;;;10.23;6.13;;;;;;;9.54;100.00;98091.78;4236587;27;20054;-72
2022/09/13 02:58:24;;;;;;;9.88;6.10;;;;;;;9.49;100.00;98094.88;4236828;27;20047;-72
2022/09/13 03:00:25;;;;;;;10.13;6.78;;;;;;;9.45;100.00;98086.56;4238183;27;20044;-72
2022/09/13 03:02:31;;;;;;;9.50;6.35;;;;;;;9.45;100.00;98094.06;4236686;27;20047;-72
2022/09/13 03:04:32;;;;;;;9.20;6.30;;;;;;;9.41;100.00;98088.47;4236709;27;20072;-72
2022/09/13 03:06:32;;;;;;;9.25;6.90;;;;;;;9.40;100.00;98095.19;4236455;27;20051;-72
2022/09/13 03:08:34;;;;;;;10.52;6.95;;;;;;;9.43;100.00;98094.44;4236706;27;20039;-72
2022/09/13 03:10:40;;;;;;;18.52;7.00;;;;;;;9.40;100.00;98103.47;4236770;27;20070;-72
2022/09/13 03:13:18;;;;;;;8.23;6.45;;;;;;;9.36;100.00;98097.13;4237271;27;20058;-72
2022/09/13 03:15:22;;;;;;;10.00;6.03;;;;;;;9.34;100.00;98090.38;4236357;27;20132;-72
2022/09/13 03:17:59;;;;;;;8.98;6.53;;;;;;;9.33;100.00;98084.06;4236413;27;20043;-72
2022/09/13 03:20:08;;;;;;;8.48;5.95;;;;;;;9.30;100.00;98090.34;4235740;27;20051;-72
2022/09/13 03:22:27;;;;;;;6.95;5.53;;;;;;;9.31;100.00;98082.84;4235588;27;20436;-72
2022/09/13 03:24:39;;;;;;;8.35;6.50;;;;;;;9.32;100.00;98081.69;4237001;27;20070;-72
2022/09/13 03:26:55;;;;;;;9.60;6.70;;;;;;;9.34;100.00;98079.31;4236084;27;20387;-73
2022/09/13 03:29:33;;;;;;;8.50;6.47;;;;;;;9.34;100.00;98082.88;4235986;27;20047;-72
2022/09/13 03:32:02;;;;;;;9.07;6.00;;;;;;;9.29;100.00;98075.75;4236209;27;20051;-72
2022/09/13 03:34:24;;;;;;;8.07;5.85;;;;;;;9.26;100.00;98072.94;4236027;27;20035;-72
2022/09/13 03:37:07;;;;;;;8.55;6.13;;;;;;;9.26;100.00;98067.41;4218019;28;20491;-72
2022/09/13 03:39:14;;;;;;;7.03;5.47;;;;;;;9.26;100.00;98070.97;4234614;28;20261;-72
2022/09/13 03:41:21;;;;;;;10.95;6.10;;;;;;;9.26;100.00;98057.16;4235958;27;20386;-72
2022/09/13 03:43:34;;;;;;;8.85;6.50;;;;;;;9.26;100.00;98053.63;4237055;27;20304;-72
2022/09/13 03:45:37;;;;;;;;;;;;;;;9.35;100.00;98058.81;4238290;27;20055;-72
2022/09/13 03:47:41;;;;;;;;;;;;;;;9.34;100.00;98068.28;4237135;27;19915;-72
2022/09/13 03:49:41;;;;;;;8.32;5.47;;;;;;;9.33;100.00;98067.50;4235731;27;19919;-72
2022/09/13 03:51:46;;;;;;;7.93;5.88;;;;;;;9.37;100.00;98071.09;4237000;27;20639;-72
2022/09/13 03:53:52;;;;;;;9.88;6.85;;;;;;;9.34;99.83;98073.81;4236353;27;20508;-72
2022/09/13 03:55:53;;;;;;;8.20;5.97;;;;;;;9.35;100.00;98083.69;4236469;27;20493;-72
2022/09/13 03:57:53;;;;;;;8.43;6.45;;;;;;;9.34;100.00;98079.31;4236211;27;20050;-72
2022/09/13 03:59:56;;;;;;;9.70;5.90;;;;;;;9.38;100.00;98086.50;4235618;27;20446;-72
2022/09/13 04:01:56;;;;;;;8.73;5.95;;;;;;;9.42;100.00;98083.75;4234159;27;20043;-72
2022/09/13 04:03:56;;;;;;;10.30;6.25;;;;;;;9.46;100.00;98074.34;4239306;27;20057;-72
2022/09/13 04:05:57;;;;;;;8.48;5.60;;;;;;;9.53;99.87;98079.13;4238740;27;20405;-72
2022/09/13 04:07:57;;;;;;;7.95;6.20;;;;;;;9.60;99.40;98081.16;4235976;27;20534;-72
2022/09/13 04:09:58;;;;;;;9.25;6.00;;;;;;;9.65;99.49;98072.53;4234671;27;20066;-72
2022/09/13 04:11:58;;;;;;;6.50;5.10;;;;;;;9.71;99.66;98082.84;4220752;28;20062;-72
2022/09/13 04:13:58;;;;;;;8.35;6.45;;;;;;;9.71;99.83;98082.06;4235349;27;20043;-72
2022/09/13 04:16:01;;;;;;;7.28;5.85;;;;;;;9.69;100.00;98079.69;4238601;27;20038;-72
2022/09/13 04:18:01;;;;;;;7.93;5.63;;;;;;;9.67;99.89;98075.69;4237761;27;20041;-72
2022/09/13 04:20:03;;;;;;;12.50;6.10;;;;;;;9.67;100.00;98079.25;4236974;27;20023;-72
2022/09/13 04:22:03;;;;;;;11.88;6.13;;;;;;;9.65;99.76;98078.84;4236666;27;20023;-72
2022/09/13 04:24:04;;;;;;;11.90;6.18;;;;;;;9.63;100.00;98072.91;4234545;27;20088;-72
2022/09/13 04:26:05;;;;;;;8.88;6.15;;;;;;;9.62;100.00;98071.31;4235456;27;20127;-72
2022/09/13 04:28:05;;;;;;;9.95;6.65;;;;;;;9.59;100.00;98072.06;4235138;27;20079;-72
2022/09/13 04:30:06;;;;;;;9.48;6.47;;;;;;;9.62;100.00;98071.31;4238090;27;20015;-72
2022/09/13 04:32:08;;;;;;;10.95;6.35;;;;;;;9.62;100.00;98073.28;4239838;27;20617;-72
2022/09/13 04:34:08;;;;;;;8.75;6.05;;;;;;;9.65;99.65;98078.03;4239368;27;20020;-72
2022/09/13 04:36:09;;;;;;;11.30;6.70;;;;;;;9.65;99.72;98073.31;4239243;27;20093;-72
2022/09/13 04:38:09;;;;;;;9.43;5.95;;;;;;;9.70;100.00;98072.19;4237835;27;20670;-72
2022/09/13 04:40:10;;;;;;;10.85;6.60;;;;;;;9.73;99.56;98071.41;4237385;27;20031;-72
2022/09/13 04:42:10;;;;;;;14.80;6.55;;;;;;;9.75;99.42;98067.09;4238257;27;20023;-72
2022/09/13 04:44:13;;;;;;;11.50;5.80;;;;;;;9.82;99.50;98063.59;4237385;27;20066;-72
2022/09/13 04:46:13;;;;;;;8.38;5.90;;;;;;;9.87;99.29;98067.97;4237587;27;20027;-72
2022/09/13 04:48:14;;;;;;;12.05;6.65;;;;;;;9.91;99.42;98058.53;4238569;27;20091;-72
2022/09/13 04:50:14;;;;;;;8.38;6.13;;;;;;;9.93;99.44;98056.19;4238691;27;20030;-72
2022/09/13 04:52:15;;;;;;;9.65;7.22;;;;;;;9.95;99.39;98056.59;4237613;27;20461;-72
2022/09/13 04:54:16;;;;;;;12.18;6.03;;;;;;;9.96;99.50;98052.66;4237791;27;20031;-72
2022/09/13 04:56:18;;;;;;;11.25;5.72;;;;;;;10.00;98.90;98052.66;4237460;27;20035;-72
2022/09/13 04:58:20;;;;;;;11.77;6.80;;;;;;;10.03;100.00;98054.66;4237008;27;20099;-72
2022/09/13 05:00:20;;;;;;;10.38;6.03;;;;;;;10.02;100.00;98055.84;4142849;27;20433;-72
2022/09/13 05:02:20;;;;;;;10.70;5.97;;;;;;;10.05;99.51;98049.53;4237118;27;20065;-72
2022/09/13 05:04:25;;;;;;;12.55;6.45;;;;;;;10.04;99.87;98056.25;4236230;27;20058;-72
2022/09/13 05:06:27;;;;;;;10.60;5.93;;;;;;;10.07;100.00;98055.47;4236030;27;20035;-72
2022/09/13 05:08:27;;;;;;;9.50;5.70;;;;;;;10.07;99.72;98047.97;4237510;27;20425;-72
2022/09/13 05:10:27;;;;;;;12.00;6.03;;;;;;;10.07;99.60;98047.97;4238844;27;20046;-72
2022/09/13 05:12:28;;;;;;;11.18;6.13;;;;;;;10.10;99.90;98044.47;4238990;27;20103;-72
2022/09/13 05:14:28;;;;;;;10.93;6.47;;;;;;;10.13;99.18;98042.88;4237842;27;20478;-72
2022/09/13 05:16:31;;;;;;;14.25;6.75;;;;;;;10.16;99.75;98053.16;4238455;27;20375;-72
2022/09/13 05:18:34;;;;;;;9.00;5.65;;;;;;;10.19;98.88;98046.09;4237258;27;20131;-72
2022/09/13 05:20:34;;;;;;;8.55;6.13;;;;;;;10.24;98.19;98042.97;4236976;27;20043;-72
2022/09/13 05:22:34;;;;;;;7.43;5.38;;;;;;;10.26;98.88;98046.97;4238166;27;20104;-71
2022/09/13 05:24:35;;;;;;;9.02;6.22;;;;;;;10.30;98.81;98063.56;4239244;27;20539;-71
2022/09/13 05:26:35;;;;;;;8.85;5.55;;;;;;;10.32;99.75;98044.59;4237314;27;20080;-71
2022/09/13 05:28:36;;;;;;;9.80;6.15;;;;;;;10.38;100.00;98060.44;4236913;27;20047;-71
2022/09/13 05:30:36;;;;;;;13.57;7.03;;;;;;;10.40;100.00;98054.53;4236949;27;20533;-71
2022/09/13 05:32:37;;;;;;;11.52;6.30;;;;;;;10.46;100.00;98055.75;4237400;27;20043;-71
2022/09/13 05:34:37;;;;;;;8.18;6.05;;;;;;;10.50;100.00;98045.47;4237923;27;20047;-71
2022/09/13 05:36:38;;;;;;;10.32;6.28;;;;;;;10.57;99.59;98045.50;4237014;27;20044;-71
2022/09/13 05:38:38;;;;;;;8.18;5.75;;;;;;;10.66;100.00;98047.91;4236952;27;20312;-71
2022/09/13 05:40:39;;;;;;;11.10;7.15;;;;;;;10.69;100.00;98053.47;4236950;27;20043;-71
2022/09/13 05:42:39;;;;;;;10.98;6.63;;;;;;;10.77;100.00;98042.44;4237919;27;20043;-71
2022/09/13 05:44:39;;;;;;;13.40;6.70;;;;;;;10.84;100.00;98037.72;4238958;27;20435;-71
2022/09/13 05:46:41;;;;;;;10.10;6.50;;;;;;;10.92;100.00;98044.06;4235740;27;20385;-71
2022/09/13 05:48:42;;;;;;;9.40;6.00;;;;;;;11.01;100.00;98044.50;4237162;27;20467;-71
2022/09/13 05:50:42;;;;;;;11.63;6.70;;;;;;;11.06;100.00;98038.56;4237533;27;20046;-71
2022/09/13 05:52:43;;;;;;;10.85;6.40;;;;;;;11.11;100.00;98040.19;4237611;27;20039;-71
2022/09/13 05:54:43;;;;;;;10.05;6.35;;;;;;;11.19;99.51;98039.81;4233325;27;20137;-71
2022/09/13 05:56:43;;;;;;;12.85;6.30;;;;;;;11.27;99.56;98039.81;4235167;27;20447;-71
2022/09/13 05:58:47;;;;;;;11.65;6.50;;;;;;;11.37;99.29;98044.56;4237286;27;20122;-71
2022/09/13 06:00:55;;;;;;;8.23;6.03;;;;;;;11.44;100.00;98039.03;4235213;27;20492;-71
2022/09/13 06:02:56;;;;;;;9.93;6.45;;;;;;;11.50;99.89;98037.44;4235985;27;20051;-71
2022/09/13 06:04:56;;;;;;;12.38;6.20;;;;;;;11.59;100.00;98034.31;4236964;27;20084;-71
2022/09/13 06:06:56;;;;;;;9.75;6.20;;;;;;;11.65;99.18;98030.72;4236135;27;20050;-71
2022/09/13 06:08:57;;;;;;;8.20;6.05;;;;;;;11.72;97.68;98030.72;4217248;27;20036;-71
2022/09/13 06:11:06;;;;;;;12.02;5.68;;;;;;;11.85;95.24;98024.81;4236449;27;20051;-71
2022/09/13 06:13:06;;;;;;;9.27;6.32;;;;;;;11.97;98.61;98027.97;4236078;27;20128;-71
2022/09/13 06:15:08;;;;;;;8.95;6.07;;;;;;;12.00;98.62;98026.41;4236277;27;20047;-71
2022/09/13 06:17:08;;;;;;;7.93;6.00;;;;;;;12.07;94.72;98020.81;4235022;27;20474;-71
2022/09/13 06:19:08;;;;;;;8.27;6.05;;;;;;;12.11;94.79;98016.06;4236530;27;20074;-71
2022/09/13 06:21:16;;;;;;;9.25;6.72;;;;;;;12.17;97.15;98016.47;4238171;27;20067;-71
2022/09/13 06:23:17;;;;;;;8.55;6.20;;;;;;;12.22;98.36;98019.59;4238499;27;20059;-71
2022/09/13 06:25:17;;;;;;;10.23;7.20;;;;;;;12.25;99.56;98012.47;4236467;27;20128;-71
2022/09/13 06:27:17;;;;;;;9.55;6.97;;;;;;;12.31;100.00;98022.75;4237570;27;20085;-71
2022/09/13 06:29:18;;;;;;;11.70;6.93;;;;;;;12.37;100.00;98014.81;4235729;27;20039;-71
2022/09/13 06:31:21;;;;;;;7.65;5.90;;;;;;;12.40;100.00;98018.75;4237852;27;20056;-71
2022/09/13 06:33:21;;;;;;;8.95;5.80;;;;;;;12.42;100.00;98016.41;4237281;27;20054;-71
2022/09/13 06:35:22;;;;;;;11.50;6.35;;;;;;;12.47;98.03;98021.50;4237586;27;20039;-71
2022/09/13 06:37:22;;;;;;;10.40;6.60;;;;;;;12.52;99.48;98018.34;4237036;27;20047;-71
2022/09/13 06:39:23;;;;;;;8.55;6.18;;;;;;;12.57;98.54;98024.25;4236212;27;20043;-71
2022/09/13 06:41:25;;;;;;;8.18;6.30;;;;;;;12.59;97.35;98021.88;4237447;27;20422;-71
2022/09/13 06:43:25;;;;;;;8.60;6.30;;;;;;;12.65;99.05;98022.22;4236763;27;20376;-71
2022/09/13 06:45:26;;;;;;;12.25;6.65;;;;;;;12.71;100.00;98025.41;4236750;27;20744;-71
2022/09/13 06:47:26;;;;;;;7.97;6.35;;;;;;;12.72;97.99;98026.97;4236598;27;20047;-71
2022/09/13 06:49:28;;;;;;;7.82;6.00;;;;;;;12.72;97.65;98026.97;4236436;27;20054;-71
2022/09/13 06:51:29;;;;;;;7.63;5.87;;;;;;;12.79;99.02;98029.72;4236909;27;20134;-71
2022/09/13 06:53:30;;;;;;;9.32;6.65;;;;;;;12.82;99.96;98026.91;4237104;27;20035;-71
2022/09/13 06:55:30;;;;;;;9.70;6.60;;;;;;;12.82;98.75;98021.38;4236722;27;20258;-71
2022/09/13 06:57:31;;;;;;;8.82;6.10;;;;;;;12.87;99.07;98026.50;4237027;27;20067;-71
2022/09/13 06:59:32;;;;;;;7.47;6.18;;;;;;;12.87;99.73;98020.94;4236142;27;20335;-71
2022/09/13 07:01:38;;;;;;;9.25;6.78;;;;;;;12.91;99.78;98021.75;4236681;27;20050;-71
2022/09/13 07:03:41;;;;;;;7.75;5.75;;;;;;;12.93;94.90;98024.91;4236455;27;20095;-71
2022/09/13 07:05:42;;;;;;;9.00;5.70;;;;;;;12.96;96.10;98023.28;4236649;27;20038;-71
2022/09/13 07:07:42;;;;;;;8.70;6.18;;;;;;;13.02;96.86;98029.22;4236614;27;20043;-71
2022/09/13 07:09:42;;;;;;;8.88;6.32;;;;;;;13.03;96.56;98037.13;4235960;27;20126;-71
2022/09/13 07:11:44;;;;;;;9.55;6.93;;;;;;;13.07;98.04;98032.34;4237050;27;20127;-71
2022/09/13 07:13:49;;;;;;;9.63;6.22;;;;;;;13.09;97.31;98037.50;4236715;27;20043;-71
2022/09/13 07:15:49;;;;;;;7.53;5.55;;;;;;;13.12;94.53;98031.94;4236077;27;20478;-71
2022/09/13 07:17:50;;;;;;;8.45;5.15;;;;;;;13.13;91.01;98019.63;4236869;27;20054;-71
2022/09/13 07:19:50;;;;;;;8.00;6.03;;;;;;;13.19;93.93;98029.13;4236653;27;20094;-71
2022/09/13 07:21:51;;;;;;;8.38;5.90;;;;;;;13.26;95.25;98041.41;4236704;27;20074;-71
2022/09/13 07:23:53;;;;;;;11.95;6.78;;;;;;;13.32;95.54;98036.97;4236048;27;20047;-71
2022/09/13 07:26:00;;;;;;;6.45;5.35;;;;;;;13.36;90.92;98024.66;4237414;27;20039;-72
2022/09/13 07:28:01;;;;;;;6.93;4.75;;;;;;;13.41;89.81;98029.81;4237227;27;20039;-71
2022/09/13 07:30:01;;;;;;;9.07;5.50;;;;;;;13.45;91.55;98032.53;4236042;27;20235;-72
2022/09/13 07:32:01;;;;;;;7.65;5.80;;;;;;;13.51;94.64;98039.25;4235541;27;20408;-71
2022/09/13 07:34:04;;;;;;;9.70;6.03;;;;;;;13.54;93.20;98041.22;4236295;27;20027;-71
2022/09/13 07:36:06;;;;;;;8.98;6.38;;;;;;;13.61;95.96;98048.72;4235970;27;20031;-71
2022/09/13 07:38:06;;;;;;;16.13;7.60;;;;;;;13.66;98.61;98042.72;4236472;27;20031;-71
2022/09/13 07:40:07;;;;;;;7.85;6.18;;;;;;;13.67;97.18;98063.75;4235694;27;20142;-71
2022/09/13 07:42:08;;;;;;;11.95;7.18;;;;;;;13.72;96.57;98054.97;4235867;27;20054;-71
2022/09/13 07:44:10;;;;;;;9.93;5.88;;;;;;;13.73;96.37;98043.44;4236525;27;20019;-72
2022/09/13 07:46:16;;;;;;;10.18;5.03;;;;;;;13.75;88.95;98024.38;4236184;27;20023;-71
2022/09/13 07:48:16;;;;;;;11.93;5.18;;;;;;;13.85;90.38;98041.38;4235678;27;20027;-71
2022/09/13 07:50:17;;;;;;;8.13;5.97;;;;;;;13.94;94.93;98050.81;4235619;27;20034;-71
2022/09/13 07:52:17;;;;;;;10.80;7.10;;;;;;;14.08;97.39;98055.47;4235681;28;20516;-71
2022/09/13 07:54:18;;;;;;;7.40;5.63;;;;;;;14.15;97.86;98047.06;4236156;27;20600;-71
2022/09/13 07:56:21;;;;;;;9.65;6.95;;;;;;;14.26;97.23;98050.53;4235580;27;20054;-71
2022/09/13 07:58:21;;;;;;;8.65;5.90;;;;;;;14.40;96.52;98041.25;4235368;27;20209;-72
2022/09/13 08:00:24;;;;;;;6.80;4.63;;;;;;;14.55;91.97;98042.66;4235534;27;20039;-71
2022/09/13 08:02:24;;;;;;;7.97;5.20;;;;;;;14.73;89.34;98047.25;4236501;27;20375;-72
2022/09/13 08:04:25;;;;;;;6.28;4.30;;;;;;;14.99;87.79;98043.75;4235768;27;20498;-71
2022/09/13 08:06:27;;;;;;;7.18;4.72;;;;;;;15.25;84.43;98049.78;4236425;28;20487;-73
2022/09/13 08:08:28;;;;;;;7.18;4.53;;;;;;;15.48;83.36;98037.91;4235313;28;20051;-72
2022/09/13 08:10:28;;;;;;;4.65;3.60;;;;;;;15.73;83.08;98047.47;4236483;27;20100;-72
2022/09/13 08:12:29;;;;;;;5.70;4.32;;;;;;;15.92;81.64;98048.75;4236059;27;20519;-72
2022/09/13 08:14:29;;;;;;;4.72;3.50;;;;;;;16.08;81.41;98053.69;4236065;27;20112;-72
2022/09/13 08:16:30;;;;;;;4.43;3.97;;;;;;;16.17;80.31;98044.75;4236335;27;20089;-72
2022/09/13 08:18:31;;;;;;;5.82;4.35;;;;;;;16.26;80.26;98045.78;4234873;27;20074;-72
2022/09/13 08:20:38;;;;;;;4.60;3.78;;;;;;;16.38;79.78;98035.97;4235277;27;20049;-72
2022/09/13 08:22:38;;;;;;;7.88;3.72;;;;;;;16.51;79.42;98041.72;4235551;27;20052;-72
2022/09/13 08:24:38;;;;;;;5.45;3.95;;;;;;;16.66;80.23;98043.03;4235686;27;20351;-72
2022/09/13 08:26:39;;;;;;;5.28;4.18;;;;;;;16.80;80.32;98048.38;4235602;28;20051;-72
2022/09/13 08:28:41;;;;;;;6.00;4.30;;;;;;;16.97;77.37;98043.63;4235382;27;20430;-72
2022/09/13 08:30:42;;;;;;;7.18;3.85;;;;;;;17.04;77.09;98037.88;4235367;27;20058;-72
2022/09/13 08:32:42;;;;;;;6.03;4.10;;;;;;;17.12;75.69;98049.69;4236282;27;20096;-72
2022/09/13 08:34:43;;;;;;;6.82;4.18;;;;;;;17.19;76.86;98043.94;4236100;27;20039;-72
2022/09/13 08:36:43;;;;;;;4.85;3.53;;;;;;;17.19;76.05;98043.94;4235874;27;20047;-72
2022/09/13 08:38:48;;;;;;;5.35;4.38;;;;;;;17.25;76.11;98053.41;4235207;27;20055;-72
2022/09/13 08:41:18;;;;;;;4.95;4.22;;;;;;;17.34;74.85;98048.00;4236188;28;20555;-72
2022/09/13 08:43:35;;;;;;;5.95;3.78;;;;;;;17.36;74.98;98050.34;4183358;28;20210;-72
2022/09/13 08:45:36;;;;;;;4.57;3.85;;;;;;;17.47;74.05;98045.34;4234915;27;20130;-72
2022/09/13 08:47:49;;;;;;;4.82;4.05;;;;;;;17.51;74.21;98050.81;4236865;27;20074;-72
2022/09/13 08:49:58;;;;;;;5.03;3.50;;;;;;;17.57;72.33;98055.47;4237981;27;20183;-72
2022/09/13 08:52:30;;;;;;;4.07;3.33;;;;;;;17.63;71.68;98052.97;4239144;27;20041;-72
2022/09/13 08:54:31;;;;;;;4.35;3.35;;;;;;;17.72;71.39;98052.38;4174779;27;20035;-72
2022/09/13 08:56:58;;;;;;;4.13;3.37;;;;;;;17.79;71.42;98054.97;4238478;27;20063;-72
2022/09/13 08:59:18;;;;;;;5.35;3.60;;;;;;;17.85;70.25;98051.22;4237619;27;20489;-72
2022/09/13 09:01:25;;;;;;;4.43;3.65;;;;;;;17.88;70.96;98049.59;4237513;27;20046;-72
2022/09/13 09:03:45;;;;;;;4.72;4.05;;;;;;;17.90;70.32;98056.31;4238962;27;20047;-73
2022/09/13 09:05:48;;;;;;;6.43;3.92;;;;;;;17.98;69.20;98042.16;4238453;27;20042;-72
2022/09/13 09:08:09;;;;;;;3.95;3.28;;;;;;;17.99;69.65;98044.50;4237632;27;20509;-72
2022/09/13 09:10:19;;;;;;;6.00;3.78;;;;;;;17.99;70.33;98046.53;4237382;27;20459;-72
2022/09/13 09:12:22;;;;;;;4.00;3.42;;;;;;;18.01;70.09;98044.06;4238266;27;20142;-72
2022/09/13 09:14:34;;;;;;;5.40;3.72;;;;;;;18.05;70.01;98039.19;4238212;27;20047;-72
2022/09/13 09:16:46;;;;;;;4.10;3.35;;;;;;;18.14;69.50;98042.91;4238318;27;20043;-72
2022/09/13 09:18:48;;;;;;;4.25;3.40;;;;;;;18.19;69.37;98030.38;4237301;27;20047;-72
2022/09/13 09:20:52;;;;;;;5.82;3.90;;;;;;;18.23;67.82;98036.69;4238293;27;20055;-72
2022/09/13 09:22:54;;;;;;;5.20;3.70;;;;;;;18.28;69.47;98032.56;4237492;27;20047;-72
2022/09/13 09:24:56;;;;;;;8.02;4.13;;;;;;;18.32;68.93;98033.28;4238033;27;20122;-72
2022/09/13 09:26:57;;;;;;;5.43;4.10;;;;;;;18.39;68.44;98028.25;4238675;27;20444;-72
2022/09/13 09:29:16;;;;;;;4.65;3.78;;;;;;;18.49;67.68;98027.19;4236848;27;20039;-72
2022/09/13 09:31:51;;;;;;;6.13;4.47;;;;;;;18.57;67.97;98036.19;4238448;27;20162;-72
2022/09/13 09:34:10;;;;;;;5.55;4.03;;;;;;;18.59;68.26;98030.13;4237901;27;20055;-72
2022/09/13 09:36:31;;;;;;;3.95;3.55;;;;;;;18.61;68.33;98027.66;4237512;27;20459;-72
2022/09/13 09:38:41;;;;;;;4.00;3.00;;;;;;;18.68;66.15;98035.91;4236467;27;20475;-72
2022/09/13 09:40:42;;;;;;;3.92;3.05;;;;;;;18.72;67.27;98028.19;4238129;27;20116;-72
2022/09/13 09:42:48;;;;;;;5.03;3.28;;;;;;;18.79;66.61;98031.59;4237714;27;20043;-72
2022/09/13 09:44:52;;;;;;;7.43;3.38;;;;;;;18.88;66.91;98022.53;4237943;27;20082;-72
2022/09/13 09:47:01;;;;;;;4.55;3.00;;;;;;;18.99;65.46;98020.19;4237536;27;20055;-72
2022/09/13 09:51:35;;;;;;;5.30;3.33;;;;;;;19.14;64.98;98009.34;4192010;27;20501;-72
2022/09/13 09:53:43;;;;;;;3.95;3.55;;;;;;;19.17;65.85;98007.66;4237423;27;20334;-72